Terminal Aerodrome Forecast
Issued by NWS Twin Cities, MN

Home | Current Version | Previous Version | Graphics & Text | Print | Product List | Glossary On
Versions: 1 2 3 4 5 6 7 8 9 10 11 12 13 14 15 16 17 18 19 20 21 22 23 24
000
FTUS43 KMPX 231120
TAFSTC
TAF
KSTC 231120Z 2312/2412 20005KT P6SM SCT040 BKN200
     FM231800 17006KT P6SM OVC035
     FM232200 04005KT P6SM BKN040
     FM240700 13006KT P6SM BKN100
     FM241000 16007KT P6SM SCT120=

USA.gov is the U.S. government's official web portal to all federal, state and local government web resources and services.